sensor_id;sensor_type;location;lat;lon;timestamp;P1;durP1;ratioP1;P2;durP2;ratioP2
71127;SDS011;59249;59.736;30.568;2023-02-15T00:00:00;6.47;;;1.02;;
71127;SDS011;59249;59.736;30.568;2023-02-15T00:02:31;8.43;;;1.45;;
71127;SDS011;59249;59.736;30.568;2023-02-15T00:05:00;9.20;;;1.52;;
71127;SDS011;59249;59.736;30.568;2023-02-15T00:07:29;7.20;;;1.83;;
71127;SDS011;59249;59.736;30.568;2023-02-15T00:09:58;6.82;;;1.25;;
71127;SDS011;59249;59.736;30.568;2023-02-15T00:12:26;7.55;;;1.60;;
71127;SDS011;59249;59.736;30.568;2023-02-15T00:14:56;7.15;;;1.52;;
71127;SDS011;59249;59.736;30.568;2023-02-15T00:17:26;6.05;;;1.45;;
71127;SDS011;59249;59.736;30.568;2023-02-15T00:19:55;5.73;;;1.60;;
71127;SDS011;59249;59.736;30.568;2023-02-15T00:22:24;5.20;;;1.35;;
71127;SDS011;59249;59.736;30.568;2023-02-15T00:24:53;6.38;;;1.92;;
71127;SDS011;59249;59.736;30.568;2023-02-15T00:27:22;7.47;;;1.85;;
71127;SDS011;59249;59.736;30.568;2023-02-15T00:29:51;7.32;;;1.98;;
71127;SDS011;59249;59.736;30.568;2023-02-15T00:42:52;4.00;;;1.20;;
71127;SDS011;59249;59.736;30.568;2023-02-15T00:45:21;6.05;;;1.38;;
71127;SDS011;59249;59.736;30.568;2023-02-15T00:47:51;6.72;;;1.55;;
71127;SDS011;59249;59.736;30.568;2023-02-15T00:50:19;7.57;;;1.80;;
71127;SDS011;59249;59.736;30.568;2023-02-15T00:52:49;7.07;;;1.23;;
71127;SDS011;59249;59.736;30.568;2023-02-15T00:55:19;8.00;;;1.48;;
71127;SDS011;59249;59.736;30.568;2023-02-15T00:57:48;7.10;;;1.65;;
71127;SDS011;59249;59.736;30.568;2023-02-15T01:00:18;6.68;;;1.83;;
71127;SDS011;59249;59.736;30.568;2023-02-15T01:02:47;11.33;;;1.77;;
71127;SDS011;59249;59.736;30.568;2023-02-15T01:05:16;6.65;;;1.90;;
71127;SDS011;59249;59.736;30.568;2023-02-15T01:07:45;8.35;;;1.70;;
71127;SDS011;59249;59.736;30.568;2023-02-15T01:10:15;5.68;;;1.60;;
71127;SDS011;59249;59.736;30.568;2023-02-15T01:12:44;7.97;;;1.67;;
71127;SDS011;59249;59.736;30.568;2023-02-15T01:15:12;9.13;;;1.90;;
71127;SDS011;59249;59.736;30.568;2023-02-15T01:17:42;8.45;;;2.17;;
71127;SDS011;59249;59.736;30.568;2023-02-15T01:20:18;8.55;;;2.08;;
71127;SDS011;59249;59.736;30.568;2023-02-15T01:22:49;7.35;;;1.40;;
71127;SDS011;59249;59.736;30.568;2023-02-15T01:25:18;7.30;;;1.50;;
71127;SDS011;59249;59.736;30.568;2023-02-15T01:27:49;8.00;;;1.80;;
71127;SDS011;59249;59.736;30.568;2023-02-15T01:30:18;7.70;;;1.63;;
71127;SDS011;59249;59.736;30.568;2023-02-15T01:32:48;7.47;;;1.73;;
71127;SDS011;59249;59.736;30.568;2023-02-15T01:35:17;7.80;;;1.65;;
71127;SDS011;59249;59.736;30.568;2023-02-15T01:37:46;7.63;;;2.22;;
71127;SDS011;59249;59.736;30.568;2023-02-15T01:40:15;6.20;;;1.50;;
71127;SDS011;59249;59.736;30.568;2023-02-15T01:42:45;8.73;;;1.60;;
71127;SDS011;59249;59.736;30.568;2023-02-15T01:45:20;7.75;;;1.80;;
71127;SDS011;59249;59.736;30.568;2023-02-15T01:47:54;7.95;;;2.25;;
71127;SDS011;59249;59.736;30.568;2023-02-15T01:50:29;6.75;;;2.03;;
71127;SDS011;59249;59.736;30.568;2023-02-15T01:53:03;7.10;;;2.67;;
71127;SDS011;59249;59.736;30.568;2023-02-15T01:55:42;7.50;;;2.28;;
71127;SDS011;59249;59.736;30.568;2023-02-15T01:58:18;11.82;;;2.63;;
71127;SDS011;59249;59.736;30.568;2023-02-15T02:00:48;5.22;;;2.00;;
71127;SDS011;59249;59.736;30.568;2023-02-15T02:03:19;7.20;;;2.03;;
71127;SDS011;59249;59.736;30.568;2023-02-15T02:06:04;9.47;;;1.80;;
71127;SDS011;59249;59.736;30.568;2023-02-15T02:08:33;8.40;;;1.88;;
71127;SDS011;59249;59.736;30.568;2023-02-15T02:11:02;6.35;;;1.75;;
71127;SDS011;59249;59.736;30.568;2023-02-15T02:13:37;11.80;;;2.80;;
71127;SDS011;59249;59.736;30.568;2023-02-15T02:16:28;10.68;;;3.15;;
71127;SDS011;59249;59.736;30.568;2023-02-15T02:19:19;13.07;;;3.17;;
71127;SDS011;59249;59.736;30.568;2023-02-15T02:25:50;9.40;;;3.17;;
71127;SDS011;59249;59.736;30.568;2023-02-15T02:35:35;7.10;;;2.10;;
71127;SDS011;59249;59.736;30.568;2023-02-15T02:38:15;8.27;;;2.08;;
71127;SDS011;59249;59.736;30.568;2023-02-15T02:40:52;6.63;;;2.03;;
71127;SDS011;59249;59.736;30.568;2023-02-15T02:43:37;9.10;;;2.33;;
71127;SDS011;59249;59.736;30.568;2023-02-15T02:46:15;8.25;;;2.15;;
71127;SDS011;59249;59.736;30.568;2023-02-15T02:48:51;7.57;;;2.00;;
71127;SDS011;59249;59.736;30.568;2023-02-15T02:51:21;10.05;;;2.22;;
71127;SDS011;59249;59.736;30.568;2023-02-15T02:53:51;10.20;;;2.67;;
71127;SDS011;59249;59.736;30.568;2023-02-15T02:56:25;12.38;;;4.53;;
71127;SDS011;59249;59.736;30.568;2023-02-15T02:58:59;9.77;;;2.30;;
71127;SDS011;59249;59.736;30.568;2023-02-15T03:01:32;10.57;;;2.40;;
71127;SDS011;59249;59.736;30.568;2023-02-15T03:04:09;9.98;;;2.65;;
71127;SDS011;59249;59.736;30.568;2023-02-15T03:06:45;12.07;;;2.58;;
71127;SDS011;59249;59.736;30.568;2023-02-15T03:09:21;10.93;;;2.75;;
71127;SDS011;59249;59.736;30.568;2023-02-15T03:12:01;10.43;;;3.13;;
71127;SDS011;59249;59.736;30.568;2023-02-15T03:14:33;9.07;;;1.50;;
71127;SDS011;59249;59.736;30.568;2023-02-15T03:17:03;5.43;;;1.60;;
71127;SDS011;59249;59.736;30.568;2023-02-15T03:19:37;5.85;;;1.92;;
71127;SDS011;59249;59.736;30.568;2023-02-15T03:22:08;5.70;;;2.10;;
71127;SDS011;59249;59.736;30.568;2023-02-15T03:24:43;25.92;;;11.93;;
71127;SDS011;59249;59.736;30.568;2023-02-15T03:27:17;6.60;;;1.40;;
71127;SDS011;59249;59.736;30.568;2023-02-15T03:29:52;6.20;;;1.58;;
71127;SDS011;59249;59.736;30.568;2023-02-15T03:32:26;6.88;;;2.13;;
71127;SDS011;59249;59.736;30.568;2023-02-15T03:35:01;7.65;;;1.80;;
71127;SDS011;59249;59.736;30.568;2023-02-15T03:37:32;6.75;;;1.17;;
71127;SDS011;59249;59.736;30.568;2023-02-15T03:40:07;7.90;;;2.10;;
71127;SDS011;59249;59.736;30.568;2023-02-15T03:43:00;10.68;;;3.40;;
71127;SDS011;59249;59.736;30.568;2023-02-15T03:45:38;6.40;;;2.05;;
71127;SDS011;59249;59.736;30.568;2023-02-15T03:48:22;6.07;;;1.45;;
71127;SDS011;59249;59.736;30.568;2023-02-15T03:50:59;8.02;;;1.27;;
71127;SDS011;59249;59.736;30.568;2023-02-15T03:53:50;6.00;;;1.60;;
71127;SDS011;59249;59.736;30.568;2023-02-15T03:56:21;7.00;;;1.75;;
71127;SDS011;59249;59.736;30.568;2023-02-15T03:58:50;5.95;;;1.70;;
71127;SDS011;59249;59.736;30.568;2023-02-15T04:01:37;5.95;;;0.95;;
71127;SDS011;59249;59.736;30.568;2023-02-15T04:04:32;5.40;;;1.50;;
71127;SDS011;59249;59.736;30.568;2023-02-15T04:07:05;11.03;;;2.30;;
71127;SDS011;59249;59.736;30.568;2023-02-15T04:09:36;7.70;;;1.42;;
71127;SDS011;59249;59.736;30.568;2023-02-15T04:12:22;6.88;;;1.80;;
71127;SDS011;59249;59.736;30.568;2023-02-15T04:14:51;9.43;;;1.88;;
71127;SDS011;59249;59.736;30.568;2023-02-15T04:17:37;7.50;;;1.70;;
71127;SDS011;59249;59.736;30.568;2023-02-15T04:20:07;6.67;;;1.63;;
71127;SDS011;59249;59.736;30.568;2023-02-15T04:22:56;9.43;;;3.67;;
71127;SDS011;59249;59.736;30.568;2023-02-15T04:25:42;9.38;;;2.80;;
71127;SDS011;59249;59.736;30.568;2023-02-15T04:28:12;8.38;;;2.00;;
71127;SDS011;59249;59.736;30.568;2023-02-15T04:30:41;5.80;;;1.67;;
71127;SDS011;59249;59.736;30.568;2023-02-15T04:33:10;6.13;;;2.37;;
71127;SDS011;59249;59.736;30.568;2023-02-15T04:35:38;9.10;;;1.65;;
71127;SDS011;59249;59.736;30.568;2023-02-15T04:38:08;5.72;;;1.52;;
71127;SDS011;59249;59.736;30.568;2023-02-15T04:40:37;6.35;;;2.42;;
71127;SDS011;59249;59.736;30.568;2023-02-15T04:43:05;5.90;;;1.80;;
71127;SDS011;59249;59.736;30.568;2023-02-15T04:45:34;8.07;;;1.90;;
71127;SDS011;59249;59.736;30.568;2023-02-15T04:48:03;8.15;;;1.83;;
71127;SDS011;59249;59.736;30.568;2023-02-15T04:50:31;10.38;;;3.00;;
71127;SDS011;59249;59.736;30.568;2023-02-15T04:53:00;7.35;;;2.10;;
71127;SDS011;59249;59.736;30.568;2023-02-15T04:55:30;8.18;;;2.47;;
71127;SDS011;59249;59.736;30.568;2023-02-15T04:57:59;9.93;;;2.47;;
71127;SDS011;59249;59.736;30.568;2023-02-15T05:00:27;8.90;;;2.47;;
71127;SDS011;59249;59.736;30.568;2023-02-15T05:02:56;8.50;;;2.30;;
71127;SDS011;59249;59.736;30.568;2023-02-15T05:05:25;9.88;;;2.72;;
71127;SDS011;59249;59.736;30.568;2023-02-15T05:07:54;7.75;;;2.47;;
71127;SDS011;59249;59.736;30.568;2023-02-15T05:10:22;9.67;;;2.13;;
71127;SDS011;59249;59.736;30.568;2023-02-15T05:12:54;9.77;;;2.53;;
71127;SDS011;59249;59.736;30.568;2023-02-15T05:15:22;10.65;;;3.35;;
71127;SDS011;59249;59.736;30.568;2023-02-15T05:17:51;10.15;;;2.35;;
71127;SDS011;59249;59.736;30.568;2023-02-15T05:20:20;9.32;;;2.38;;
71127;SDS011;59249;59.736;30.568;2023-02-15T05:22:48;14.90;;;5.93;;
71127;SDS011;59249;59.736;30.568;2023-02-15T05:25:21;9.10;;;2.58;;
71127;SDS011;59249;59.736;30.568;2023-02-15T05:28:20;7.07;;;2.40;;
71127;SDS011;59249;59.736;30.568;2023-02-15T05:30:50;7.63;;;2.22;;
71127;SDS011;59249;59.736;30.568;2023-02-15T05:33:30;8.82;;;2.97;;
71127;SDS011;59249;59.736;30.568;2023-02-15T05:35:59;7.73;;;2.20;;
71127;SDS011;59249;59.736;30.568;2023-02-15T05:38:29;11.13;;;2.55;;
71127;SDS011;59249;59.736;30.568;2023-02-15T05:40:58;10.68;;;2.35;;
71127;SDS011;59249;59.736;30.568;2023-02-15T05:43:29;7.25;;;2.00;;
71127;SDS011;59249;59.736;30.568;2023-02-15T05:45:57;6.55;;;1.95;;
71127;SDS011;59249;59.736;30.568;2023-02-15T05:48:27;8.83;;;2.03;;
71127;SDS011;59249;59.736;30.568;2023-02-15T05:50:57;7.10;;;1.90;;
71127;SDS011;59249;59.736;30.568;2023-02-15T05:53:28;8.23;;;2.20;;
71127;SDS011;59249;59.736;30.568;2023-02-15T05:56:01;9.15;;;2.00;;
71127;SDS011;59249;59.736;30.568;2023-02-15T05:58:33;8.75;;;2.65;;
71127;SDS011;59249;59.736;30.568;2023-02-15T06:01:07;9.87;;;2.40;;
71127;SDS011;59249;59.736;30.568;2023-02-15T06:03:37;8.90;;;2.67;;
71127;SDS011;59249;59.736;30.568;2023-02-15T06:06:06;8.50;;;3.05;;
71127;SDS011;59249;59.736;30.568;2023-02-15T06:08:36;10.05;;;3.95;;
71127;SDS011;59249;59.736;30.568;2023-02-15T06:11:06;11.65;;;4.25;;
71127;SDS011;59249;59.736;30.568;2023-02-15T06:13:36;8.20;;;2.53;;
71127;SDS011;59249;59.736;30.568;2023-02-15T06:16:05;9.73;;;3.53;;
71127;SDS011;59249;59.736;30.568;2023-02-15T06:18:34;8.55;;;3.10;;
71127;SDS011;59249;59.736;30.568;2023-02-15T06:21:03;10.18;;;3.08;;
71127;SDS011;59249;59.736;30.568;2023-02-15T06:23:32;11.45;;;4.15;;
71127;SDS011;59249;59.736;30.568;2023-02-15T06:26:00;10.30;;;3.97;;
71127;SDS011;59249;59.736;30.568;2023-02-15T06:28:30;16.00;;;4.88;;
71127;SDS011;59249;59.736;30.568;2023-02-15T06:31:00;10.35;;;3.60;;
71127;SDS011;59249;59.736;30.568;2023-02-15T06:33:29;12.50;;;4.00;;
71127;SDS011;59249;59.736;30.568;2023-02-15T06:36:00;10.20;;;3.03;;
71127;SDS011;59249;59.736;30.568;2023-02-15T06:38:36;8.13;;;3.00;;
71127;SDS011;59249;59.736;30.568;2023-02-15T06:41:10;13.15;;;3.63;;
71127;SDS011;59249;59.736;30.568;2023-02-15T06:43:42;12.02;;;3.45;;
71127;SDS011;59249;59.736;30.568;2023-02-15T06:46:17;11.65;;;3.67;;
71127;SDS011;59249;59.736;30.568;2023-02-15T06:48:49;9.80;;;3.47;;
71127;SDS011;59249;59.736;30.568;2023-02-15T06:54:21;9.98;;;3.17;;
71127;SDS011;59249;59.736;30.568;2023-02-15T06:56:53;11.45;;;3.53;;
71127;SDS011;59249;59.736;30.568;2023-02-15T06:59:25;10.68;;;3.35;;
71127;SDS011;59249;59.736;30.568;2023-02-15T07:01:55;12.13;;;3.05;;
71127;SDS011;59249;59.736;30.568;2023-02-15T07:04:24;9.47;;;2.93;;
71127;SDS011;59249;59.736;30.568;2023-02-15T07:06:55;11.25;;;3.40;;
71127;SDS011;59249;59.736;30.568;2023-02-15T07:09:24;9.73;;;2.72;;
71127;SDS011;59249;59.736;30.568;2023-02-15T07:11:53;9.85;;;3.53;;
71127;SDS011;59249;59.736;30.568;2023-02-15T07:14:39;12.95;;;4.40;;
71127;SDS011;59249;59.736;30.568;2023-02-15T07:17:09;14.63;;;4.30;;
71127;SDS011;59249;59.736;30.568;2023-02-15T07:19:58;11.85;;;3.40;;
71127;SDS011;59249;59.736;30.568;2023-02-15T07:22:27;13.13;;;4.80;;
71127;SDS011;59249;59.736;30.568;2023-02-15T07:24:56;12.38;;;4.30;;
71127;SDS011;59249;59.736;30.568;2023-02-15T07:27:24;12.43;;;4.55;;
71127;SDS011;59249;59.736;30.568;2023-02-15T07:29:53;11.23;;;3.80;;
71127;SDS011;59249;59.736;30.568;2023-02-15T07:32:23;11.50;;;3.35;;
71127;SDS011;59249;59.736;30.568;2023-02-15T07:34:55;10.70;;;3.40;;
71127;SDS011;59249;59.736;30.568;2023-02-15T07:37:25;10.57;;;3.05;;
71127;SDS011;59249;59.736;30.568;2023-02-15T07:39:55;10.80;;;2.92;;
71127;SDS011;59249;59.736;30.568;2023-02-15T07:42:23;10.43;;;3.50;;
71127;SDS011;59249;59.736;30.568;2023-02-15T07:44:52;10.27;;;3.10;;
71127;SDS011;59249;59.736;30.568;2023-02-15T07:47:23;8.45;;;2.50;;
71127;SDS011;59249;59.736;30.568;2023-02-15T07:49:54;7.32;;;2.17;;
71127;SDS011;59249;59.736;30.568;2023-02-15T07:52:22;8.98;;;2.85;;
71127;SDS011;59249;59.736;30.568;2023-02-15T07:54:51;6.40;;;2.00;;
71127;SDS011;59249;59.736;30.568;2023-02-15T07:57:20;8.95;;;3.08;;
71127;SDS011;59249;59.736;30.568;2023-02-15T07:59:48;9.70;;;2.60;;
71127;SDS011;59249;59.736;30.568;2023-02-15T08:02:17;6.55;;;2.80;;
71127;SDS011;59249;59.736;30.568;2023-02-15T08:04:47;8.57;;;3.28;;
71127;SDS011;59249;59.736;30.568;2023-02-15T08:07:16;8.83;;;3.37;;
71127;SDS011;59249;59.736;30.568;2023-02-15T08:09:44;8.50;;;2.80;;
71127;SDS011;59249;59.736;30.568;2023-02-15T08:12:13;9.68;;;2.70;;
71127;SDS011;59249;59.736;30.568;2023-02-15T08:14:41;9.13;;;2.65;;
71127;SDS011;59249;59.736;30.568;2023-02-15T08:17:10;7.97;;;2.65;;
71127;SDS011;59249;59.736;30.568;2023-02-15T08:19:39;10.20;;;2.70;;
71127;SDS011;59249;59.736;30.568;2023-02-15T08:22:10;9.25;;;2.65;;
71127;SDS011;59249;59.736;30.568;2023-02-15T08:24:41;10.23;;;2.40;;
71127;SDS011;59249;59.736;30.568;2023-02-15T08:27:10;10.07;;;2.25;;
71127;SDS011;59249;59.736;30.568;2023-02-15T08:29:39;8.65;;;2.78;;
71127;SDS011;59249;59.736;30.568;2023-02-15T08:32:09;9.33;;;2.83;;
71127;SDS011;59249;59.736;30.568;2023-02-15T08:34:41;12.23;;;3.72;;
71127;SDS011;59249;59.736;30.568;2023-02-15T08:37:11;12.50;;;4.25;;
71127;SDS011;59249;59.736;30.568;2023-02-15T08:39:40;16.30;;;4.45;;
71127;SDS011;59249;59.736;30.568;2023-02-15T08:42:09;15.05;;;5.95;;
71127;SDS011;59249;59.736;30.568;2023-02-15T08:44:38;19.03;;;5.60;;
71127;SDS011;59249;59.736;30.568;2023-02-15T08:47:07;16.35;;;5.70;;
71127;SDS011;59249;59.736;30.568;2023-02-15T08:49:35;13.05;;;5.68;;
71127;SDS011;59249;59.736;30.568;2023-02-15T08:52:04;12.73;;;5.13;;
71127;SDS011;59249;59.736;30.568;2023-02-15T08:54:35;16.10;;;6.10;;
71127;SDS011;59249;59.736;30.568;2023-02-15T08:57:04;15.37;;;5.87;;
71127;SDS011;59249;59.736;30.568;2023-02-15T08:59:33;19.15;;;7.20;;
71127;SDS011;59249;59.736;30.568;2023-02-15T09:02:02;17.45;;;6.85;;
71127;SDS011;59249;59.736;30.568;2023-02-15T09:04:30;16.42;;;6.43;;
71127;SDS011;59249;59.736;30.568;2023-02-15T09:06:59;18.35;;;6.60;;
71127;SDS011;59249;59.736;30.568;2023-02-15T09:09:31;16.70;;;6.70;;
71127;SDS011;59249;59.736;30.568;2023-02-15T09:12:01;21.98;;;7.43;;
71127;SDS011;59249;59.736;30.568;2023-02-15T09:14:30;18.85;;;7.35;;
71127;SDS011;59249;59.736;30.568;2023-02-15T09:16:58;16.25;;;7.80;;
71127;SDS011;59249;59.736;30.568;2023-02-15T09:19:27;19.83;;;7.60;;
71127;SDS011;59249;59.736;30.568;2023-02-15T09:21:56;16.33;;;8.07;;
71127;SDS011;59249;59.736;30.568;2023-02-15T09:24:25;22.85;;;7.70;;
71127;SDS011;59249;59.736;30.568;2023-02-15T09:26:54;17.73;;;6.47;;
71127;SDS011;59249;59.736;30.568;2023-02-15T09:29:24;21.70;;;6.32;;
71127;SDS011;59249;59.736;30.568;2023-02-15T09:31:52;25.63;;;6.10;;
71127;SDS011;59249;59.736;30.568;2023-02-15T09:34:21;13.67;;;4.63;;
71127;SDS011;59249;59.736;30.568;2023-02-15T09:36:51;18.70;;;4.97;;
71127;SDS011;59249;59.736;30.568;2023-02-15T09:39:20;12.88;;;4.40;;
71127;SDS011;59249;59.736;30.568;2023-02-15T09:42:02;12.02;;;3.55;;
71127;SDS011;59249;59.736;30.568;2023-02-15T09:45:05;13.15;;;3.42;;
71127;SDS011;59249;59.736;30.568;2023-02-15T09:47:55;11.47;;;4.10;;
71127;SDS011;59249;59.736;30.568;2023-02-15T09:50:53;10.27;;;4.25;;
71127;SDS011;59249;59.736;30.568;2023-02-15T09:53:54;11.40;;;3.78;;
71127;SDS011;59249;59.736;30.568;2023-02-15T09:56:47;6.93;;;2.80;;
71127;SDS011;59249;59.736;30.568;2023-02-15T09:59:23;9.75;;;3.35;;
71127;SDS011;59249;59.736;30.568;2023-02-15T10:02:09;8.83;;;3.00;;
71127;SDS011;59249;59.736;30.568;2023-02-15T10:04:54;9.95;;;3.67;;
71127;SDS011;59249;59.736;30.568;2023-02-15T10:07:44;9.65;;;2.83;;
71127;SDS011;59249;59.736;30.568;2023-02-15T10:10:39;6.55;;;2.30;;
71127;SDS011;59249;59.736;30.568;2023-02-15T10:13:46;7.75;;;2.00;;
71127;SDS011;59249;59.736;30.568;2023-02-15T10:16:33;7.63;;;2.70;;
71127;SDS011;59249;59.736;30.568;2023-02-15T10:19:16;12.55;;;1.85;;
71127;SDS011;59249;59.736;30.568;2023-02-15T10:21:59;8.00;;;1.25;;
71127;SDS011;59249;59.736;30.568;2023-02-15T10:24:55;6.75;;;1.27;;
71127;SDS011;59249;59.736;30.568;2023-02-15T10:27:49;7.45;;;1.10;;
71127;SDS011;59249;59.736;30.568;2023-02-15T10:30:19;5.97;;;1.43;;
71127;SDS011;59249;59.736;30.568;2023-02-15T10:33:00;7.32;;;1.75;;
71127;SDS011;59249;59.736;30.568;2023-02-15T10:35:35;5.75;;;1.20;;
71127;SDS011;59249;59.736;30.568;2023-02-15T10:38:20;7.40;;;0.82;;
71127;SDS011;59249;59.736;30.568;2023-02-15T10:41:02;7.22;;;1.02;;
71127;SDS011;59249;59.736;30.568;2023-02-15T10:43:55;8.17;;;1.33;;
71127;SDS011;59249;59.736;30.568;2023-02-15T10:47:00;5.25;;;0.75;;
71127;SDS011;59249;59.736;30.568;2023-02-15T10:50:17;6.75;;;1.25;;
71127;SDS011;59249;59.736;30.568;2023-02-15T10:53:03;5.88;;;1.13;;
71127;SDS011;59249;59.736;30.568;2023-02-15T10:56:00;7.60;;;2.95;;
71127;SDS011;59249;59.736;30.568;2023-02-15T10:58:58;5.87;;;0.87;;
71127;SDS011;59249;59.736;30.568;2023-02-15T11:01:47;8.23;;;2.28;;
71127;SDS011;59249;59.736;30.568;2023-02-15T11:07:37;5.05;;;0.80;;
71127;SDS011;59249;59.736;30.568;2023-02-15T11:10:18;5.90;;;1.25;;
71127;SDS011;59249;59.736;30.568;2023-02-15T11:13:01;6.93;;;1.13;;
71127;SDS011;59249;59.736;30.568;2023-02-15T11:15:46;4.97;;;1.60;;
71127;SDS011;59249;59.736;30.568;2023-02-15T11:18:31;9.48;;;1.38;;
71127;SDS011;59249;59.736;30.568;2023-02-15T11:21:09;6.85;;;1.52;;
71127;SDS011;59249;59.736;30.568;2023-02-15T11:23:52;7.03;;;1.70;;
71127;SDS011;59249;59.736;30.568;2023-02-15T11:26:31;6.13;;;1.40;;
71127;SDS011;59249;59.736;30.568;2023-02-15T11:29:12;9.35;;;1.30;;
71127;SDS011;59249;59.736;30.568;2023-02-15T11:31:53;5.07;;;1.30;;
71127;SDS011;59249;59.736;30.568;2023-02-15T11:34:29;5.88;;;1.30;;
71127;SDS011;59249;59.736;30.568;2023-02-15T11:37:05;7.70;;;1.40;;
71127;SDS011;59249;59.736;30.568;2023-02-15T11:39:40;7.33;;;1.83;;
71127;SDS011;59249;59.736;30.568;2023-02-15T11:42:12;10.02;;;2.03;;
71127;SDS011;59249;59.736;30.568;2023-02-15T11:44:46;5.82;;;1.40;;
71127;SDS011;59249;59.736;30.568;2023-02-15T11:47:28;4.68;;;1.23;;
71127;SDS011;59249;59.736;30.568;2023-02-15T11:50:00;8.00;;;1.38;;
71127;SDS011;59249;59.736;30.568;2023-02-15T11:52:33;8.47;;;1.63;;
71127;SDS011;59249;59.736;30.568;2023-02-15T11:55:09;6.85;;;1.92;;
71127;SDS011;59249;59.736;30.568;2023-02-15T11:57:43;6.72;;;1.85;;
71127;SDS011;59249;59.736;30.568;2023-02-15T12:00:24;6.82;;;1.80;;
71127;SDS011;59249;59.736;30.568;2023-02-15T12:03:05;10.82;;;3.40;;
71127;SDS011;59249;59.736;30.568;2023-02-15T12:05:44;7.67;;;1.87;;
71127;SDS011;59249;59.736;30.568;2023-02-15T12:08:17;8.77;;;2.33;;
71127;SDS011;59249;59.736;30.568;2023-02-15T12:11:00;8.55;;;2.72;;
71127;SDS011;59249;59.736;30.568;2023-02-15T12:13:55;8.95;;;2.42;;
71127;SDS011;59249;59.736;30.568;2023-02-15T12:16:31;5.65;;;1.38;;
71127;SDS011;59249;59.736;30.568;2023-02-15T12:22:03;8.83;;;2.00;;
71127;SDS011;59249;59.736;30.568;2023-02-15T12:24:38;8.40;;;1.10;;
71127;SDS011;59249;59.736;30.568;2023-02-15T12:27:14;7.63;;;1.30;;
71127;SDS011;59249;59.736;30.568;2023-02-15T12:29:49;22.60;;;11.25;;
71127;SDS011;59249;59.736;30.568;2023-02-15T12:32:22;8.18;;;2.25;;
71127;SDS011;59249;59.736;30.568;2023-02-15T12:34:55;8.10;;;1.40;;
71127;SDS011;59249;59.736;30.568;2023-02-15T12:37:34;6.68;;;1.00;;
71127;SDS011;59249;59.736;30.568;2023-02-15T12:40:18;5.28;;;1.20;;
71127;SDS011;59249;59.736;30.568;2023-02-15T12:42:50;9.75;;;1.38;;
71127;SDS011;59249;59.736;30.568;2023-02-15T12:45:21;8.05;;;1.63;;
71127;SDS011;59249;59.736;30.568;2023-02-15T12:48:07;6.60;;;1.27;;
71127;SDS011;59249;59.736;30.568;2023-02-15T12:50:44;7.68;;;1.10;;
71127;SDS011;59249;59.736;30.568;2023-02-15T12:53:21;5.03;;;1.00;;
71127;SDS011;59249;59.736;30.568;2023-02-15T12:55:59;7.55;;;1.30;;
71127;SDS011;59249;59.736;30.568;2023-02-15T12:58:29;6.85;;;0.90;;
71127;SDS011;59249;59.736;30.568;2023-02-15T13:04:00;4.10;;;0.75;;
71127;SDS011;59249;59.736;30.568;2023-02-15T13:06:33;6.47;;;1.05;;
71127;SDS011;59249;59.736;30.568;2023-02-15T13:09:06;7.50;;;1.08;;
71127;SDS011;59249;59.736;30.568;2023-02-15T13:11:43;8.15;;;0.68;;
71127;SDS011;59249;59.736;30.568;2023-02-15T13:14:17;6.47;;;1.33;;
71127;SDS011;59249;59.736;30.568;2023-02-15T13:16:50;12.13;;;5.57;;
71127;SDS011;59249;59.736;30.568;2023-02-15T13:19:26;11.15;;;4.85;;
71127;SDS011;59249;59.736;30.568;2023-02-15T13:22:02;5.32;;;1.15;;
71127;SDS011;59249;59.736;30.568;2023-02-15T13:24:41;3.53;;;0.80;;
71127;SDS011;59249;59.736;30.568;2023-02-15T13:27:15;11.97;;;2.90;;
71127;SDS011;59249;59.736;30.568;2023-02-15T13:29:49;8.55;;;1.15;;
71127;SDS011;59249;59.736;30.568;2023-02-15T13:32:29;5.47;;;0.85;;
71127;SDS011;59249;59.736;30.568;2023-02-15T13:35:04;5.57;;;0.70;;
71127;SDS011;59249;59.736;30.568;2023-02-15T13:37:41;6.20;;;1.10;;
71127;SDS011;59249;59.736;30.568;2023-02-15T13:40:29;9.90;;;3.90;;
71127;SDS011;59249;59.736;30.568;2023-02-15T13:43:06;27.13;;;13.18;;
71127;SDS011;59249;59.736;30.568;2023-02-15T13:45:56;6.32;;;1.52;;
71127;SDS011;59249;59.736;30.568;2023-02-15T13:48:46;6.55;;;1.42;;
71127;SDS011;59249;59.736;30.568;2023-02-15T13:51:33;6.13;;;1.10;;
71127;SDS011;59249;59.736;30.568;2023-02-15T13:54:18;5.97;;;0.90;;
71127;SDS011;59249;59.736;30.568;2023-02-15T13:57:14;5.68;;;1.08;;
71127;SDS011;59249;59.736;30.568;2023-02-15T14:00:02;6.03;;;1.70;;
71127;SDS011;59249;59.736;30.568;2023-02-15T14:05:59;6.68;;;1.83;;
71127;SDS011;59249;59.736;30.568;2023-02-15T14:08:58;7.43;;;1.27;;
71127;SDS011;59249;59.736;30.568;2023-02-15T14:11:44;8.80;;;3.80;;
71127;SDS011;59249;59.736;30.568;2023-02-15T14:14:32;19.85;;;3.55;;
71127;SDS011;59249;59.736;30.568;2023-02-15T14:17:36;4.88;;;1.35;;
71127;SDS011;59249;59.736;30.568;2023-02-15T14:20:24;8.40;;;1.52;;
71127;SDS011;59249;59.736;30.568;2023-02-15T14:23:06;5.43;;;1.00;;
71127;SDS011;59249;59.736;30.568;2023-02-15T14:25:54;6.15;;;1.25;;
71127;SDS011;59249;59.736;30.568;2023-02-15T14:28:32;5.18;;;1.05;;
71127;SDS011;59249;59.736;30.568;2023-02-15T14:31:10;6.22;;;0.88;;
71127;SDS011;59249;59.736;30.568;2023-02-15T14:33:43;5.38;;;1.20;;
71127;SDS011;59249;59.736;30.568;2023-02-15T14:36:21;6.13;;;1.30;;
71127;SDS011;59249;59.736;30.568;2023-02-15T14:38:56;5.05;;;0.93;;
71127;SDS011;59249;59.736;30.568;2023-02-15T14:42:02;5.65;;;1.15;;
71127;SDS011;59249;59.736;30.568;2023-02-15T14:44:42;5.38;;;0.90;;
71127;SDS011;59249;59.736;30.568;2023-02-15T14:47:18;4.35;;;0.85;;
71127;SDS011;59249;59.736;30.568;2023-02-15T14:49:56;5.30;;;1.10;;
71127;SDS011;59249;59.736;30.568;2023-02-15T14:52:25;11.20;;;2.15;;
71127;SDS011;59249;59.736;30.568;2023-02-15T14:54:58;6.72;;;1.17;;
71127;SDS011;59249;59.736;30.568;2023-02-15T14:57:32;8.27;;;1.10;;
71127;SDS011;59249;59.736;30.568;2023-02-15T15:03:10;5.87;;;0.63;;
71127;SDS011;59249;59.736;30.568;2023-02-15T15:05:50;5.35;;;1.33;;
71127;SDS011;59249;59.736;30.568;2023-02-15T15:08:22;6.13;;;1.30;;
71127;SDS011;59249;59.736;30.568;2023-02-15T15:20:39;9.75;;;1.42;;
71127;SDS011;59249;59.736;30.568;2023-02-15T15:26:25;5.75;;;1.85;;
71127;SDS011;59249;59.736;30.568;2023-02-15T15:29:05;4.10;;;0.95;;
71127;SDS011;59249;59.736;30.568;2023-02-15T15:31:39;6.17;;;0.97;;
71127;SDS011;59249;59.736;30.568;2023-02-15T15:34:27;7.20;;;0.80;;
71127;SDS011;59249;59.736;30.568;2023-02-15T15:37:38;6.05;;;1.38;;
71127;SDS011;59249;59.736;30.568;2023-02-15T15:40:51;6.55;;;1.25;;
71127;SDS011;59249;59.736;30.568;2023-02-15T15:43:50;5.30;;;1.40;;
71127;SDS011;59249;59.736;30.568;2023-02-15T15:47:01;5.53;;;1.53;;
71127;SDS011;59249;59.736;30.568;2023-02-15T15:49:48;9.73;;;1.58;;
71127;SDS011;59249;59.736;30.568;2023-02-15T15:52:27;9.98;;;1.75;;
71127;SDS011;59249;59.736;30.568;2023-02-15T15:55:03;6.57;;;1.10;;
71127;SDS011;59249;59.736;30.568;2023-02-15T15:57:43;5.93;;;1.38;;
71127;SDS011;59249;59.736;30.568;2023-02-15T16:00:24;5.80;;;1.13;;
71127;SDS011;59249;59.736;30.568;2023-02-15T16:03:02;4.80;;;1.10;;
71127;SDS011;59249;59.736;30.568;2023-02-15T16:05:35;4.03;;;0.98;;
71127;SDS011;59249;59.736;30.568;2023-02-15T16:08:05;4.20;;;1.00;;
71127;SDS011;59249;59.736;30.568;2023-02-15T16:10:34;5.82;;;1.13;;
71127;SDS011;59249;59.736;30.568;2023-02-15T16:13:04;4.93;;;0.87;;